sensor_id;sensor_type;location;lat;lon;timestamp;temperature;humidity
65374;SHT31;52070;53.760;9.678;2023-07-13T00:00:10;15.23;90.47
65374;SHT31;52070;53.760;9.678;2023-07-13T00:02:37;15.19;90.40
65374;SHT31;52070;53.760;9.678;2023-07-13T00:05:05;15.14;90.57
65374;SHT31;52070;53.760;9.678;2023-07-13T00:07:33;15.14;90.70
65374;SHT31;52070;53.760;9.678;2023-07-13T00:10:01;15.11;90.69
65374;SHT31;52070;53.760;9.678;2023-07-13T00:12:30;15.11;90.78
65374;SHT31;52070;53.760;9.678;2023-07-13T00:14:59;15.10;90.66
65374;SHT31;52070;53.760;9.678;2023-07-13T00:17:27;15.09;90.69
65374;SHT31;52070;53.760;9.678;2023-07-13T00:19:55;15.09;90.77
65374;SHT31;52070;53.760;9.678;2023-07-13T00:22:23;15.07;91.03
65374;SHT31;52070;53.760;9.678;2023-07-13T00:24:52;15.07;91.06
65374;SHT31;52070;53.760;9.678;2023-07-13T00:27:22;15.06;91.03
65374;SHT31;52070;53.760;9.678;2023-07-13T00:29:49;15.03;91.15
65374;SHT31;52070;53.760;9.678;2023-07-13T00:32:16;15.03;91.23
65374;SHT31;52070;53.760;9.678;2023-07-13T00:34:43;15.02;91.45
65374;SHT31;52070;53.760;9.678;2023-07-13T00:37:10;15.03;91.88
65374;SHT31;52070;53.760;9.678;2023-07-13T00:39:37;15.00;91.95
65374;SHT31;52070;53.760;9.678;2023-07-13T00:42:06;15.00;92.03
65374;SHT31;52070;53.760;9.678;2023-07-13T00:44:33;14.99;92.02
65374;SHT31;52070;53.760;9.678;2023-07-13T00:47:00;15.02;92.09
65374;SHT31;52070;53.760;9.678;2023-07-13T00:49:29;15.02;91.96
65374;SHT31;52070;53.760;9.678;2023-07-13T00:51:59;14.96;91.82
65374;SHT31;52070;53.760;9.678;2023-07-13T00:54:29;14.96;91.78
65374;SHT31;52070;53.760;9.678;2023-07-13T00:56:59;14.92;91.85
65374;SHT31;52070;53.760;9.678;2023-07-13T00:59:29;14.89;91.89
65374;SHT31;52070;53.760;9.678;2023-07-13T01:01:57;14.89;91.99
65374;SHT31;52070;53.760;9.678;2023-07-13T01:04:24;14.89;92.00
65374;SHT31;52070;53.760;9.678;2023-07-13T01:06:52;14.85;91.91
65374;SHT31;52070;53.760;9.678;2023-07-13T01:09:19;14.82;91.77
65374;SHT31;52070;53.760;9.678;2023-07-13T01:11:47;14.73;91.64
65374;SHT31;52070;53.760;9.678;2023-07-13T01:14:14;14.72;91.74
65374;SHT31;52070;53.760;9.678;2023-07-13T01:16:45;14.69;91.84
65374;SHT31;52070;53.760;9.678;2023-07-13T01:19:21;14.80;92.00
65374;SHT31;52070;53.760;9.678;2023-07-13T01:21:52;14.78;92.02
65374;SHT31;52070;53.760;9.678;2023-07-13T01:24:20;14.78;92.10
65374;SHT31;52070;53.760;9.678;2023-07-13T01:26:47;14.76;92.19
65374;SHT31;52070;53.760;9.678;2023-07-13T01:29:13;14.76;92.27
65374;SHT31;52070;53.760;9.678;2023-07-13T01:31:41;14.83;92.60
65374;SHT31;52070;53.760;9.678;2023-07-13T01:34:10;14.85;92.86
65374;SHT31;52070;53.760;9.678;2023-07-13T01:36:37;14.85;93.09
65374;SHT31;52070;53.760;9.678;2023-07-13T01:39:05;14.80;93.20
65374;SHT31;52070;53.760;9.678;2023-07-13T01:41:32;14.90;93.31
65374;SHT31;52070;53.760;9.678;2023-07-13T01:43:59;14.93;93.44
65374;SHT31;52070;53.760;9.678;2023-07-13T01:46:26;14.98;93.56
65374;SHT31;52070;53.760;9.678;2023-07-13T01:48:53;14.96;93.57
65374;SHT31;52070;53.760;9.678;2023-07-13T01:51:20;15.03;93.69
65374;SHT31;52070;53.760;9.678;2023-07-13T01:53:47;15.07;93.88
65374;SHT31;52070;53.760;9.678;2023-07-13T01:56:17;15.07;94.08
65374;SHT31;52070;53.760;9.678;2023-07-13T01:58:44;15.06;94.12
65374;SHT31;52070;53.760;9.678;2023-07-13T02:01:11;15.07;94.15
65374;SHT31;52070;53.760;9.678;2023-07-13T02:03:39;15.07;94.22
65374;SHT31;52070;53.760;9.678;2023-07-13T02:06:06;15.09;94.22
65374;SHT31;52070;53.760;9.678;2023-07-13T02:08:33;15.11;94.27
65374;SHT31;52070;53.760;9.678;2023-07-13T02:11:00;15.10;94.27
65374;SHT31;52070;53.760;9.678;2023-07-13T02:13:28;15.07;94.24
65374;SHT31;52070;53.760;9.678;2023-07-13T02:15:55;15.06;94.29
65374;SHT31;52070;53.760;9.678;2023-07-13T02:18:22;15.07;94.26
65374;SHT31;52070;53.760;9.678;2023-07-13T02:20:49;15.09;94.24
65374;SHT31;52070;53.760;9.678;2023-07-13T02:23:16;15.09;94.19
65374;SHT31;52070;53.760;9.678;2023-07-13T02:25:43;15.04;94.16
65374;SHT31;52070;53.760;9.678;2023-07-13T02:28:10;15.02;94.16
65374;SHT31;52070;53.760;9.678;2023-07-13T02:30:38;15.02;94.16
65374;SHT31;52070;53.760;9.678;2023-07-13T02:33:05;14.99;94.12
65374;SHT31;52070;53.760;9.678;2023-07-13T02:35:32;14.96;94.16
65374;SHT31;52070;53.760;9.678;2023-07-13T02:37:59;14.96;94.09
65374;SHT31;52070;53.760;9.678;2023-07-13T02:40:26;14.95;94.08
65374;SHT31;52070;53.760;9.678;2023-07-13T02:42:53;14.93;94.01
65374;SHT31;52070;53.760;9.678;2023-07-13T02:45:20;14.89;93.98
65374;SHT31;52070;53.760;9.678;2023-07-13T02:47:49;14.90;93.92
65374;SHT31;52070;53.760;9.678;2023-07-13T02:50:16;14.90;93.88
65374;SHT31;52070;53.760;9.678;2023-07-13T02:52:43;14.83;93.78
65374;SHT31;52070;53.760;9.678;2023-07-13T02:55:10;14.88;93.69
65374;SHT31;52070;53.760;9.678;2023-07-13T02:57:37;14.85;93.63
65374;SHT31;52070;53.760;9.678;2023-07-13T03:00:04;14.82;93.51
65374;SHT31;52070;53.760;9.678;2023-07-13T03:02:32;14.83;93.45
65374;SHT31;52070;53.760;9.678;2023-07-13T03:05:00;14.79;93.33
65374;SHT31;52070;53.760;9.678;2023-07-13T03:07:27;14.79;93.23
65374;SHT31;52070;53.760;9.678;2023-07-13T03:09:55;14.73;93.14
65374;SHT31;52070;53.760;9.678;2023-07-13T03:12:23;14.69;93.15
65374;SHT31;52070;53.760;9.678;2023-07-13T03:14:50;14.69;93.07
65374;SHT31;52070;53.760;9.678;2023-07-13T03:17:17;14.65;92.99
65374;SHT31;52070;53.760;9.678;2023-07-13T03:19:44;14.64;92.92
65374;SHT31;52070;53.760;9.678;2023-07-13T03:22:16;14.62;92.87
65374;SHT31;52070;53.760;9.678;2023-07-13T03:24:43;14.59;92.85
65374;SHT31;52070;53.760;9.678;2023-07-13T03:27:11;14.59;92.76
65374;SHT31;52070;53.760;9.678;2023-07-13T03:29:38;14.59;92.75
65374;SHT31;52070;53.760;9.678;2023-07-13T03:32:06;14.58;92.70
65374;SHT31;52070;53.760;9.678;2023-07-13T03:34:33;14.54;92.61
65374;SHT31;52070;53.760;9.678;2023-07-13T03:37:00;14.54;92.58
65374;SHT31;52070;53.760;9.678;2023-07-13T03:39:28;14.51;92.50
65374;SHT31;52070;53.760;9.678;2023-07-13T03:41:55;14.56;92.52
65374;SHT31;52070;53.760;9.678;2023-07-13T03:44:22;14.54;92.39
65374;SHT31;52070;53.760;9.678;2023-07-13T03:46:49;14.54;92.33
65374;SHT31;52070;53.760;9.678;2023-07-13T03:49:16;14.52;92.39
65374;SHT31;52070;53.760;9.678;2023-07-13T03:51:43;14.55;92.24
65374;SHT31;52070;53.760;9.678;2023-07-13T03:54:10;14.55;92.08
65374;SHT31;52070;53.760;9.678;2023-07-13T03:56:39;14.59;91.99
65374;SHT31;52070;53.760;9.678;2023-07-13T03:59:05;14.59;92.01
65374;SHT31;52070;53.760;9.678;2023-07-13T04:01:33;14.64;91.93
65374;SHT31;52070;53.760;9.678;2023-07-13T04:04:00;14.71;91.76
65374;SHT31;52070;53.760;9.678;2023-07-13T04:06:29;14.76;91.55
65374;SHT31;52070;53.760;9.678;2023-07-13T04:08:57;14.76;91.34
65374;SHT31;52070;53.760;9.678;2023-07-13T04:11:27;14.79;91.02
65374;SHT31;52070;53.760;9.678;2023-07-13T04:13:55;14.79;90.68
65374;SHT31;52070;53.760;9.678;2023-07-13T04:16:23;14.83;90.37
65374;SHT31;52070;53.760;9.678;2023-07-13T04:18:50;14.85;90.12
65374;SHT31;52070;53.760;9.678;2023-07-13T04:21:20;14.88;90.04
65374;SHT31;52070;53.760;9.678;2023-07-13T04:23:47;14.90;89.86
65374;SHT31;52070;53.760;9.678;2023-07-13T04:26:14;14.92;89.55
65374;SHT31;52070;53.760;9.678;2023-07-13T04:28:41;14.95;89.41
65374;SHT31;52070;53.760;9.678;2023-07-13T04:31:10;14.95;89.06
65374;SHT31;52070;53.760;9.678;2023-07-13T04:33:37;14.98;88.72
65374;SHT31;52070;53.760;9.678;2023-07-13T04:36:05;14.96;88.62
65374;SHT31;52070;53.760;9.678;2023-07-13T04:38:33;15.02;88.58
65374;SHT31;52070;53.760;9.678;2023-07-13T04:41:02;15.00;88.69
65374;SHT31;52070;53.760;9.678;2023-07-13T04:43:30;15.04;88.71
65374;SHT31;52070;53.760;9.678;2023-07-13T04:46:03;15.07;88.48
65374;SHT31;52070;53.760;9.678;2023-07-13T04:48:32;15.16;87.93
65374;SHT31;52070;53.760;9.678;2023-07-13T04:50:59;15.19;87.53
65374;SHT31;52070;53.760;9.678;2023-07-13T04:53:27;15.24;87.33
65374;SHT31;52070;53.760;9.678;2023-07-13T04:55:55;15.37;87.16
65374;SHT31;52070;53.760;9.678;2023-07-13T04:58:22;15.47;86.91
65374;SHT31;52070;53.760;9.678;2023-07-13T05:00:49;15.58;86.59
65374;SHT31;52070;53.760;9.678;2023-07-13T05:03:16;15.73;86.25
65374;SHT31;52070;53.760;9.678;2023-07-13T05:05:54;15.78;85.79
65374;SHT31;52070;53.760;9.678;2023-07-13T05:08:22;15.87;85.60
65374;SHT31;52070;53.760;9.678;2023-07-13T05:10:49;15.88;85.55
65374;SHT31;52070;53.760;9.678;2023-07-13T05:13:16;15.91;85.65
65374;SHT31;52070;53.760;9.678;2023-07-13T05:15:43;15.90;85.27
65374;SHT31;52070;53.760;9.678;2023-07-13T05:18:10;15.94;85.60
65374;SHT31;52070;53.760;9.678;2023-07-13T05:20:37;15.95;85.56
65374;SHT31;52070;53.760;9.678;2023-07-13T05:23:05;15.97;85.67
65374;SHT31;52070;53.760;9.678;2023-07-13T05:25:32;15.98;85.92
65374;SHT31;52070;53.760;9.678;2023-07-13T05:27:59;15.97;85.78
65374;SHT31;52070;53.760;9.678;2023-07-13T05:30:26;15.98;86.04
65374;SHT31;52070;53.760;9.678;2023-07-13T05:32:54;16.00;86.22
65374;SHT31;52070;53.760;9.678;2023-07-13T05:35:21;16.05;86.24
65374;SHT31;52070;53.760;9.678;2023-07-13T05:37:48;16.14;86.29
65374;SHT31;52070;53.760;9.678;2023-07-13T05:40:16;16.14;86.13
65374;SHT31;52070;53.760;9.678;2023-07-13T05:42:43;16.14;85.96
65374;SHT31;52070;53.760;9.678;2023-07-13T05:45:11;16.06;85.91
65374;SHT31;52070;53.760;9.678;2023-07-13T05:47:38;16.08;85.84
65374;SHT31;52070;53.760;9.678;2023-07-13T05:50:06;16.16;86.39
65374;SHT31;52070;53.760;9.678;2023-07-13T05:52:33;16.19;86.08
65374;SHT31;52070;53.760;9.678;2023-07-13T05:55:00;16.24;85.89
65374;SHT31;52070;53.760;9.678;2023-07-13T05:57:30;16.18;85.67
65374;SHT31;52070;53.760;9.678;2023-07-13T06:00:00;16.24;85.32
65374;SHT31;52070;53.760;9.678;2023-07-13T06:02:27;16.22;85.20
65374;SHT31;52070;53.760;9.678;2023-07-13T06:04:54;16.25;85.54
65374;SHT31;52070;53.760;9.678;2023-07-13T06:07:21;16.19;85.43
65374;SHT31;52070;53.760;9.678;2023-07-13T06:09:48;16.21;85.40
65374;SHT31;52070;53.760;9.678;2023-07-13T06:12:15;16.11;85.07
65374;SHT31;52070;53.760;9.678;2023-07-13T06:14:43;16.12;85.83
65374;SHT31;52070;53.760;9.678;2023-07-13T06:17:10;16.16;85.69
65374;SHT31;52070;53.760;9.678;2023-07-13T06:19:38;16.16;85.43
65374;SHT31;52070;53.760;9.678;2023-07-13T06:22:05;16.15;85.24
65374;SHT31;52070;53.760;9.678;2023-07-13T06:24:32;16.21;85.61
65374;SHT31;52070;53.760;9.678;2023-07-13T06:26:59;16.19;85.41
65374;SHT31;52070;53.760;9.678;2023-07-13T06:29:26;16.21;85.60
65374;SHT31;52070;53.760;9.678;2023-07-13T06:31:54;16.21;85.62
65374;SHT31;52070;53.760;9.678;2023-07-13T06:34:21;16.24;85.84
65374;SHT31;52070;53.760;9.678;2023-07-13T06:36:48;16.19;85.66
65374;SHT31;52070;53.760;9.678;2023-07-13T06:39:15;16.26;85.86
65374;SHT31;52070;53.760;9.678;2023-07-13T06:41:42;16.24;85.13
65374;SHT31;52070;53.760;9.678;2023-07-13T06:44:09;16.30;85.54
65374;SHT31;52070;53.760;9.678;2023-07-13T06:46:36;16.35;85.39
65374;SHT31;52070;53.760;9.678;2023-07-13T06:49:04;16.41;85.52
65374;SHT31;52070;53.760;9.678;2023-07-13T06:51:31;16.49;85.20
65374;SHT31;52070;53.760;9.678;2023-07-13T06:53:58;16.51;84.49
65374;SHT31;52070;53.760;9.678;2023-07-13T06:56:25;16.53;84.79
65374;SHT31;52070;53.760;9.678;2023-07-13T06:58:52;16.63;85.07
65374;SHT31;52070;53.760;9.678;2023-07-13T07:01:19;16.56;84.41
65374;SHT31;52070;53.760;9.678;2023-07-13T07:03:46;16.63;84.60
65374;SHT31;52070;53.760;9.678;2023-07-13T07:06:17;16.73;84.83
65374;SHT31;52070;53.760;9.678;2023-07-13T07:08:44;16.89;84.43
65374;SHT31;52070;53.760;9.678;2023-07-13T07:11:13;17.07;83.88
65374;SHT31;52070;53.760;9.678;2023-07-13T07:13:40;17.27;83.74
65374;SHT31;52070;53.760;9.678;2023-07-13T07:16:07;17.50;83.04
65374;SHT31;52070;53.760;9.678;2023-07-13T07:18:34;17.48;82.30
65374;SHT31;52070;53.760;9.678;2023-07-13T07:21:02;17.34;82.57
65374;SHT31;52070;53.760;9.678;2023-07-13T07:23:30;17.34;82.98
65374;SHT31;52070;53.760;9.678;2023-07-13T07:25:57;17.35;82.91
65374;SHT31;52070;53.760;9.678;2023-07-13T07:28:25;17.44;83.15
65374;SHT31;52070;53.760;9.678;2023-07-13T07:30:55;17.47;83.15
65374;SHT31;52070;53.760;9.678;2023-07-13T07:33:22;17.45;82.85
65374;SHT31;52070;53.760;9.678;2023-07-13T07:35:49;17.44;83.02
65374;SHT31;52070;53.760;9.678;2023-07-13T07:38:16;17.54;82.74
65374;SHT31;52070;53.760;9.678;2023-07-13T07:40:45;17.58;82.55
65374;SHT31;52070;53.760;9.678;2023-07-13T07:43:12;17.71;82.42
65374;SHT31;52070;53.760;9.678;2023-07-13T07:45:40;17.85;82.15
65374;SHT31;52070;53.760;9.678;2023-07-13T07:48:07;17.75;82.15
65374;SHT31;52070;53.760;9.678;2023-07-13T07:50:35;17.84;82.29
65374;SHT31;52070;53.760;9.678;2023-07-13T07:53:02;17.96;82.10
65374;SHT31;52070;53.760;9.678;2023-07-13T07:55:33;17.98;81.26
65374;SHT31;52070;53.760;9.678;2023-07-13T07:58:02;18.10;81.44
65374;SHT31;52070;53.760;9.678;2023-07-13T08:00:29;18.21;80.75
65374;SHT31;52070;53.760;9.678;2023-07-13T08:02:57;18.33;80.17
65374;SHT31;52070;53.760;9.678;2023-07-13T08:05:25;18.35;79.67
65374;SHT31;52070;53.760;9.678;2023-07-13T08:07:52;18.30;79.43
65374;SHT31;52070;53.760;9.678;2023-07-13T08:10:19;18.36;79.99
65374;SHT31;52070;53.760;9.678;2023-07-13T08:12:46;18.50;79.73
65374;SHT31;52070;53.760;9.678;2023-07-13T08:15:15;18.52;78.99
65374;SHT31;52070;53.760;9.678;2023-07-13T08:17:43;18.52;78.58
65374;SHT31;52070;53.760;9.678;2023-07-13T08:20:10;18.64;78.95
65374;SHT31;52070;53.760;9.678;2023-07-13T08:22:37;18.81;78.48
65374;SHT31;52070;53.760;9.678;2023-07-13T08:25:04;18.91;77.39
65374;SHT31;52070;53.760;9.678;2023-07-13T08:27:32;18.84;78.17
65374;SHT31;52070;53.760;9.678;2023-07-13T08:30:00;18.78;77.90
65374;SHT31;52070;53.760;9.678;2023-07-13T08:32:28;18.86;77.61
65374;SHT31;52070;53.760;9.678;2023-07-13T08:34:55;19.06;76.98
65374;SHT31;52070;53.760;9.678;2023-07-13T08:37:22;19.00;76.98
65374;SHT31;52070;53.760;9.678;2023-07-13T08:39:49;19.00;76.68
65374;SHT31;52070;53.760;9.678;2023-07-13T08:42:33;18.94;76.85
65374;SHT31;52070;53.760;9.678;2023-07-13T08:45:08;19.07;77.20
65374;SHT31;52070;53.760;9.678;2023-07-13T08:47:43;19.14;77.40
65374;SHT31;52070;53.760;9.678;2023-07-13T08:50:13;18.97;76.41
65374;SHT31;52070;53.760;9.678;2023-07-13T08:52:42;18.97;76.27
65374;SHT31;52070;53.760;9.678;2023-07-13T08:55:14;19.04;77.00
65374;SHT31;52070;53.760;9.678;2023-07-13T08:57:46;19.20;75.36
65374;SHT31;52070;53.760;9.678;2023-07-13T09:00:14;19.32;75.46
65374;SHT31;52070;53.760;9.678;2023-07-13T09:02:46;19.36;75.84
65374;SHT31;52070;53.760;9.678;2023-07-13T09:05:14;19.17;75.34
65374;SHT31;52070;53.760;9.678;2023-07-13T09:07:55;19.31;76.07
65374;SHT31;52070;53.760;9.678;2023-07-13T09:10:28;19.57;74.66
65374;SHT31;52070;53.760;9.678;2023-07-13T09:13:07;19.65;73.74
65374;SHT31;52070;53.760;9.678;2023-07-13T09:15:40;19.62;73.76
65374;SHT31;52070;53.760;9.678;2023-07-13T09:18:11;19.75;73.64
65374;SHT31;52070;53.760;9.678;2023-07-13T09:20:46;19.79;73.69
65374;SHT31;52070;53.760;9.678;2023-07-13T09:23:16;20.12;72.26
65374;SHT31;52070;53.760;9.678;2023-07-13T09:25:45;19.99;71.04
65374;SHT31;52070;53.760;9.678;2023-07-13T09:28:16;19.96;70.03
65374;SHT31;52070;53.760;9.678;2023-07-13T09:30:45;20.06;71.07
65374;SHT31;52070;53.760;9.678;2023-07-13T09:33:14;20.37;71.54
65374;SHT31;52070;53.760;9.678;2023-07-13T09:35:41;20.74;69.77
65374;SHT31;52070;53.760;9.678;2023-07-13T09:38:13;20.67;69.61
65374;SHT31;52070;53.760;9.678;2023-07-13T09:40:47;20.83;66.61
65374;SHT31;52070;53.760;9.678;2023-07-13T09:43:18;21.14;66.36
65374;SHT31;52070;53.760;9.678;2023-07-13T09:45:46;21.12;65.49
65374;SHT31;52070;53.760;9.678;2023-07-13T09:48:16;21.02;65.48
65374;SHT31;52070;53.760;9.678;2023-07-13T09:50:44;20.90;64.78
65374;SHT31;52070;53.760;9.678;2023-07-13T09:53:12;21.11;65.58
65374;SHT31;52070;53.760;9.678;2023-07-13T09:55:42;21.19;66.49
65374;SHT31;52070;53.760;9.678;2023-07-13T09:58:13;21.41;65.40
65374;SHT31;52070;53.760;9.678;2023-07-13T10:00:41;21.19;65.24
65374;SHT31;52070;53.760;9.678;2023-07-13T10:03:19;21.18;66.08
65374;SHT31;52070;53.760;9.678;2023-07-13T10:05:48;20.73;66.70
65374;SHT31;52070;53.760;9.678;2023-07-13T10:08:24;20.47;71.97
65374;SHT31;52070;53.760;9.678;2023-07-13T10:10:58;19.45;72.08
65374;SHT31;52070;53.760;9.678;2023-07-13T10:13:36;18.64;76.87
65374;SHT31;52070;53.760;9.678;2023-07-13T10:16:04;18.47;80.06
65374;SHT31;52070;53.760;9.678;2023-07-13T10:18:39;18.40;81.86
65374;SHT31;52070;53.760;9.678;2023-07-13T10:21:16;18.60;82.24
65374;SHT31;52070;53.760;9.678;2023-07-13T10:23:45;19.07;85.63
65374;SHT31;52070;53.760;9.678;2023-07-13T10:26:17;19.01;83.96
65374;SHT31;52070;53.760;9.678;2023-07-13T10:28:46;18.93;82.10
65374;SHT31;52070;53.760;9.678;2023-07-13T10:31:17;19.18;83.56
65374;SHT31;52070;53.760;9.678;2023-07-13T10:33:46;18.88;78.34
65374;SHT31;52070;53.760;9.678;2023-07-13T10:36:18;18.60;80.25
65374;SHT31;52070;53.760;9.678;2023-07-13T10:38:46;18.49;79.00
65374;SHT31;52070;53.760;9.678;2023-07-13T10:41:17;18.37;80.52
65374;SHT31;52070;53.760;9.678;2023-07-13T10:43:47;18.13;78.19
65374;SHT31;52070;53.760;9.678;2023-07-13T10:46:19;18.30;79.72
65374;SHT31;52070;53.760;9.678;2023-07-13T10:48:52;18.06;75.22
65374;SHT31;52070;53.760;9.678;2023-07-13T10:51:21;17.94;77.52
65374;SHT31;52070;53.760;9.678;2023-07-13T10:54:14;17.62;74.67
65374;SHT31;52070;53.760;9.678;2023-07-13T10:56:43;17.48;77.86
65374;SHT31;52070;53.760;9.678;2023-07-13T10:59:12;17.24;77.65
65374;SHT31;52070;53.760;9.678;2023-07-13T11:01:55;17.10;80.94
65374;SHT31;52070;53.760;9.678;2023-07-13T11:04:23;17.17;82.08
65374;SHT31;52070;53.760;9.678;2023-07-13T11:06:53;17.37;84.47
65374;SHT31;52070;53.760;9.678;2023-07-13T11:09:36;17.74;82.24
65374;SHT31;52070;53.760;9.678;2023-07-13T11:12:25;18.06;83.64
65374;SHT31;52070;53.760;9.678;2023-07-13T11:15:05;18.43;84.51
65374;SHT31;52070;53.760;9.678;2023-07-13T11:17:35;18.57;83.89
65374;SHT31;52070;53.760;9.678;2023-07-13T11:20:19;18.50;80.48
65374;SHT31;52070;53.760;9.678;2023-07-13T11:22:48;18.40;81.94
65374;SHT31;52070;53.760;9.678;2023-07-13T11:25:28;18.06;82.27
65374;SHT31;52070;53.760;9.678;2023-07-13T11:28:17;17.84;83.59
65374;SHT31;52070;53.760;9.678;2023-07-13T11:30:48;17.65;83.94
65374;SHT31;52070;53.760;9.678;2023-07-13T11:33:17;17.42;83.98
65374;SHT31;52070;53.760;9.678;2023-07-13T11:35:51;17.11;84.31
65374;SHT31;52070;53.760;9.678;2023-07-13T11:38:20;16.75;84.54
65374;SHT31;52070;53.760;9.678;2023-07-13T11:40:53;16.32;84.36
65374;SHT31;52070;53.760;9.678;2023-07-13T11:43:21;15.81;85.37
65374;SHT31;52070;53.760;9.678;2023-07-13T11:45:50;15.65;85.96
65374;SHT31;52070;53.760;9.678;2023-07-13T11:48:21;15.53;87.20
65374;SHT31;52070;53.760;9.678;2023-07-13T11:50:54;15.57;88.20
65374;SHT31;52070;53.760;9.678;2023-07-13T11:53:23;15.61;88.66
65374;SHT31;52070;53.760;9.678;2023-07-13T11:55:54;15.70;89.08
65374;SHT31;52070;53.760;9.678;2023-07-13T11:58:24;15.75;89.24
65374;SHT31;52070;53.760;9.678;2023-07-13T12:00:52;15.81;89.00
65374;SHT31;52070;53.760;9.678;2023-07-13T12:03:22;15.97;88.93
65374;SHT31;52070;53.760;9.678;2023-07-13T12:05:59;16.08;89.41
65374;SHT31;52070;53.760;9.678;2023-07-13T12:08:27;16.19;89.45
65374;SHT31;52070;53.760;9.678;2023-07-13T12:11:03;16.28;89.53
65374;SHT31;52070;53.760;9.678;2023-07-13T12:13:36;16.51;89.21
65374;SHT31;52070;53.760;9.678;2023-07-13T12:16:11;16.73;89.57
65374;SHT31;52070;53.760;9.678;2023-07-13T12:18:39;16.91;89.55
65374;SHT31;52070;53.760;9.678;2023-07-13T12:21:12;17.03;89.47
65374;SHT31;52070;53.760;9.678;2023-07-13T12:23:39;17.11;89.31
65374;SHT31;52070;53.760;9.678;2023-07-13T12:26:11;17.11;89.02
65374;SHT31;52070;53.760;9.678;2023-07-13T12:28:44;17.20;88.48
65374;SHT31;52070;53.760;9.678;2023-07-13T12:31:24;17.26;88.20
65374;SHT31;52070;53.760;9.678;2023-07-13T12:34:00;17.32;88.50
65374;SHT31;52070;53.760;9.678;2023-07-13T12:36:31;17.48;88.49
65374;SHT31;52070;53.760;9.678;2023-07-13T12:39:03;17.67;88.90
65374;SHT31;52070;53.760;9.678;2023-07-13T12:41:33;17.62;86.67
65374;SHT31;52070;53.760;9.678;2023-07-13T12:44:00;17.68;86.90
65374;SHT31;52070;53.760;9.678;2023-07-13T12:46:27;17.75;87.41
65374;SHT31;52070;53.760;9.678;2023-07-13T12:48:57;17.86;87.60
65374;SHT31;52070;53.760;9.678;2023-07-13T12:51:26;17.88;86.85
65374;SHT31;52070;53.760;9.678;2023-07-13T12:53:58;17.85;85.08
65374;SHT31;52070;53.760;9.678;2023-07-13T12:56:33;17.81;84.00
65374;SHT31;52070;53.760;9.678;2023-07-13T12:59:02;17.92;84.91
65374;SHT31;52070;53.760;9.678;2023-07-13T13:01:32;17.95;83.21
65374;SHT31;52070;53.760;9.678;2023-07-13T13:04:02;18.03;84.03
65374;SHT31;52070;53.760;9.678;2023-07-13T13:06:32;18.39;85.54
65374;SHT31;52070;53.760;9.678;2023-07-13T13:09:02;18.43;83.43
65374;SHT31;52070;53.760;9.678;2023-07-13T13:11:31;18.63;83.56
65374;SHT31;52070;53.760;9.678;2023-07-13T13:13:59;18.49;81.05
65374;SHT31;52070;53.760;9.678;2023-07-13T13:16:31;18.45;81.30
65374;SHT31;52070;53.760;9.678;2023-07-13T13:19:05;18.32;80.75
65374;SHT31;52070;53.760;9.678;2023-07-13T13:21:37;18.26;82.76
65374;SHT31;52070;53.760;9.678;2023-07-13T13:24:10;18.09;82.04
65374;SHT31;52070;53.760;9.678;2023-07-13T13:26:37;18.13;80.69
65374;SHT31;52070;53.760;9.678;2023-07-13T13:29:11;18.29;82.88
65374;SHT31;52070;53.760;9.678;2023-07-13T13:31:39;18.35;81.18
65374;SHT31;52070;53.760;9.678;2023-07-13T13:34:08;18.23;81.45
65374;SHT31;52070;53.760;9.678;2023-07-13T13:36:36;18.21;80.26
65374;SHT31;52070;53.760;9.678;2023-07-13T13:39:20;18.19;80.16
65374;SHT31;52070;53.760;9.678;2023-07-13T13:41:48;18.50;80.33
65374;SHT31;52070;53.760;9.678;2023-07-13T13:44:17;19.15;79.79
65374;SHT31;52070;53.760;9.678;2023-07-13T13:46:45;19.06;75.00
65374;SHT31;52070;53.760;9.678;2023-07-13T13:49:15;18.86;73.14
65374;SHT31;52070;53.760;9.678;2023-07-13T13:51:43;18.78;74.10
65374;SHT31;52070;53.760;9.678;2023-07-13T13:54:14;18.87;73.25
65374;SHT31;52070;53.760;9.678;2023-07-13T13:56:42;19.00;73.21
65374;SHT31;52070;53.760;9.678;2023-07-13T13:59:09;19.24;73.88
65374;SHT31;52070;53.760;9.678;2023-07-13T14:01:41;19.35;74.60
65374;SHT31;52070;53.760;9.678;2023-07-13T14:04:14;19.18;75.11
65374;SHT31;52070;53.760;9.678;2023-07-13T14:06:41;18.97;74.64
65374;SHT31;52070;53.760;9.678;2023-07-13T14:09:10;18.70;73.22
65374;SHT31;52070;53.760;9.678;2023-07-13T14:11:37;18.52;72.32
65374;SHT31;52070;53.760;9.678;2023-07-13T14:14:04;18.56;75.14
65374;SHT31;52070;53.760;9.678;2023-07-13T14:16:33;18.73;74.79
65374;SHT31;52070;53.760;9.678;2023-07-13T14:19:01;18.76;74.03
65374;SHT31;52070;53.760;9.678;2023-07-13T14:21:29;19.10;74.06
65374;SHT31;52070;53.760;9.678;2023-07-13T14:23:56;18.97;71.94
65374;SHT31;52070;53.760;9.678;2023-07-13T14:26:26;18.88;72.66
65374;SHT31;52070;53.760;9.678;2023-07-13T14:28:54;18.98;73.79
65374;SHT31;52070;53.760;9.678;2023-07-13T14:31:23;18.87;73.55
65374;SHT31;52070;53.760;9.678;2023-07-13T14:33:51;19.04;71.27
65374;SHT31;52070;53.760;9.678;2023-07-13T14:36:26;19.79;71.06
65374;SHT31;52070;53.760;9.678;2023-07-13T14:38:54;20.40;70.50
65374;SHT31;52070;53.760;9.678;2023-07-13T14:41:22;20.83;68.71
65374;SHT31;52070;53.760;9.678;2023-07-13T14:43:49;20.99;64.29
65374;SHT31;52070;53.760;9.678;2023-07-13T14:46:24;20.97;65.30
65374;SHT31;52070;53.760;9.678;2023-07-13T14:49:00;20.83;63.86
65374;SHT31;52070;53.760;9.678;2023-07-13T14:51:29;20.20;67.29
65374;SHT31;52070;53.760;9.678;2023-07-13T14:53:57;19.93;68.48
65374;SHT31;52070;53.760;9.678;2023-07-13T14:56:27;19.69;67.97
65374;SHT31;52070;53.760;9.678;2023-07-13T14:58:54;19.89;68.81
65374;SHT31;52070;53.760;9.678;2023-07-13T15:01:21;20.41;68.77
65374;SHT31;52070;53.760;9.678;2023-07-13T15:03:50;20.56;67.53
65374;SHT31;52070;53.760;9.678;2023-07-13T15:06:18;20.51;67.91
65374;SHT31;52070;53.760;9.678;2023-07-13T15:08:47;20.56;68.71
65374;SHT31;52070;53.760;9.678;2023-07-13T15:11:15;20.58;65.33
65374;SHT31;52070;53.760;9.678;2023-07-13T15:13:43;20.80;65.94
65374;SHT31;52070;53.760;9.678;2023-07-13T15:16:15;21.04;64.59
65374;SHT31;52070;53.760;9.678;2023-07-13T15:18:44;20.98;63.01
65374;SHT31;52070;53.760;9.678;2023-07-13T15:21:15;20.50;63.52
65374;SHT31;52070;53.760;9.678;2023-07-13T15:23:44;20.51;64.15
65374;SHT31;52070;53.760;9.678;2023-07-13T15:26:14;20.87;63.82
65374;SHT31;52070;53.760;9.678;2023-07-13T15:28:42;21.22;65.49
65374;SHT31;52070;53.760;9.678;2023-07-13T15:31:19;20.58;64.28
65374;SHT31;52070;53.760;9.678;2023-07-13T15:33:47;20.30;64.92
65374;SHT31;52070;53.760;9.678;2023-07-13T15:36:16;20.41;64.40
65374;SHT31;52070;53.760;9.678;2023-07-13T15:38:44;20.24;63.07
65374;SHT31;52070;53.760;9.678;2023-07-13T15:41:18;20.14;63.78